sensor_id;sensor_type;location;lat;lon;timestamp;pressure;altitude;pressure_sealevel;temperature;humidity
72950;BME280;64868;45.710;9.590;2023-05-23T00:00:22;98713.69;;;18.06;68.49
72950;BME280;64868;45.710;9.590;2023-05-23T00:02:52;98705.28;;;18.07;68.27
72950;BME280;64868;45.710;9.590;2023-05-23T00:05:25;98706.78;;;18.02;68.70
72950;BME280;64868;45.710;9.590;2023-05-23T00:07:55;98707.84;;;18.01;69.05
72950;BME280;64868;45.710;9.590;2023-05-23T00:10:27;98693.84;;;18.02;68.17
72950;BME280;64868;45.710;9.590;2023-05-23T00:13:00;98703.06;;;18.11;68.24
72950;BME280;64868;45.710;9.590;2023-05-23T00:15:33;98690.06;;;18.03;68.33
72950;BME280;64868;45.710;9.590;2023-05-23T00:18:00;98687.47;;;18.02;68.49
72950;BME280;64868;45.710;9.590;2023-05-23T00:20:33;98684.69;;;17.93;68.59
72950;BME280;64868;45.710;9.590;2023-05-23T00:23:06;98688.31;;;17.94;69.11
72950;BME280;64868;45.710;9.590;2023-05-23T00:25:38;98692.13;;;17.93;68.55
72950;BME280;64868;45.710;9.590;2023-05-23T00:28:11;98682.44;;;17.89;68.69
72950;BME280;64868;45.710;9.590;2023-05-23T00:30:41;98686.56;;;17.85;69.28
72950;BME280;64868;45.710;9.590;2023-05-23T00:33:11;98686.06;;;17.89;68.89
72950;BME280;64868;45.710;9.590;2023-05-23T00:35:40;98680.19;;;17.84;68.73
72950;BME280;64868;45.710;9.590;2023-05-23T00:38:13;98673.25;;;17.80;68.83
72950;BME280;64868;45.710;9.590;2023-05-23T00:40:45;98680.53;;;17.81;69.07
72950;BME280;64868;45.710;9.590;2023-05-23T00:43:17;98678.44;;;17.83;68.93
72950;BME280;64868;45.710;9.590;2023-05-23T00:45:49;98683.13;;;17.91;68.21
72950;BME280;64868;45.710;9.590;2023-05-23T00:48:19;98673.13;;;17.90;68.05
72950;BME280;64868;45.710;9.590;2023-05-23T00:50:52;98683.84;;;17.93;68.46
72950;BME280;64868;45.710;9.590;2023-05-23T00:53:25;98670.03;;;17.85;68.27
72950;BME280;64868;45.710;9.590;2023-05-23T00:55:57;98678.47;;;17.91;68.02
72950;BME280;64868;45.710;9.590;2023-05-23T00:58:30;98678.16;;;18.03;67.87
72950;BME280;64868;45.710;9.590;2023-05-23T01:01:00;98675.91;;;17.90;68.35
72950;BME280;64868;45.710;9.590;2023-05-23T01:03:28;98684.34;;;17.88;67.95
72950;BME280;64868;45.710;9.590;2023-05-23T01:06:00;98677.06;;;17.79;68.79
72950;BME280;64868;45.710;9.590;2023-05-23T01:08:33;98671.66;;;17.69;69.69
72950;BME280;64868;45.710;9.590;2023-05-23T01:11:08;98670.09;;;17.67;69.78
72950;BME280;64868;45.710;9.590;2023-05-23T01:13:47;98667.34;;;17.67;68.80
72950;BME280;64868;45.710;9.590;2023-05-23T01:16:33;98666.69;;;17.73;68.34
72950;BME280;64868;45.710;9.590;2023-05-23T01:19:22;98674.16;;;17.81;68.58
72950;BME280;64868;45.710;9.590;2023-05-23T01:21:56;98663.75;;;17.74;68.64
72950;BME280;64868;45.710;9.590;2023-05-23T01:24:48;98666.69;;;17.73;68.83
72950;BME280;64868;45.710;9.590;2023-05-23T01:30:06;98660.78;;;17.68;68.78
72950;BME280;64868;45.710;9.590;2023-05-23T01:32:41;98667.69;;;17.72;68.70
72950;BME280;64868;45.710;9.590;2023-05-23T01:35:15;98659.56;;;17.62;68.81
72950;BME280;64868;45.710;9.590;2023-05-23T01:37:50;98663.22;;;17.71;68.51
72950;BME280;64868;45.710;9.590;2023-05-23T01:40:22;98658.34;;;17.65;68.79
72950;BME280;64868;45.710;9.590;2023-05-23T01:42:53;98658.34;;;17.65;68.49
72950;BME280;64868;45.710;9.590;2023-05-23T01:45:26;98650.44;;;17.62;68.98
72950;BME280;64868;45.710;9.590;2023-05-23T01:47:58;98655.59;;;17.65;68.57
72950;BME280;64868;45.710;9.590;2023-05-23T01:50:31;98651.66;;;17.67;68.51
72950;BME280;64868;45.710;9.590;2023-05-23T01:53:04;98653.22;;;17.70;68.04
72950;BME280;64868;45.710;9.590;2023-05-23T01:55:37;98652.84;;;17.65;68.78
72950;BME280;64868;45.710;9.590;2023-05-23T01:58:07;98650.97;;;17.65;68.23
72950;BME280;64868;45.710;9.590;2023-05-23T02:00:37;98654.22;;;17.69;68.38
72950;BME280;64868;45.710;9.590;2023-05-23T02:03:08;98650.97;;;17.65;68.33
72950;BME280;64868;45.710;9.590;2023-05-23T02:05:40;98652.81;;;17.57;68.54
72950;BME280;64868;45.710;9.590;2023-05-23T02:08:10;98654.91;;;17.63;68.45
72950;BME280;64868;45.710;9.590;2023-05-23T02:10:43;98659.91;;;17.67;68.52
72950;BME280;64868;45.710;9.590;2023-05-23T02:13:15;98658.88;;;17.68;67.98
72950;BME280;64868;45.710;9.590;2023-05-23T02:15:48;98660.75;;;17.60;68.27
72950;BME280;64868;45.710;9.590;2023-05-23T02:18:20;98668.09;;;17.77;67.45
72950;BME280;64868;45.710;9.590;2023-05-23T02:20:53;98658.03;;;17.68;67.99
72950;BME280;64868;45.710;9.590;2023-05-23T02:23:26;98648.97;;;17.49;68.37
72950;BME280;64868;45.710;9.590;2023-05-23T02:25:56;98659.38;;;17.64;68.44
72950;BME280;64868;45.710;9.590;2023-05-23T02:28:28;98668.47;;;17.56;68.53
72950;BME280;64868;45.710;9.590;2023-05-23T02:31:01;98655.72;;;17.47;68.99
72950;BME280;64868;45.710;9.590;2023-05-23T02:33:31;98656.88;;;17.44;68.92
72950;BME280;64868;45.710;9.590;2023-05-23T02:35:59;98665.97;;;17.37;69.60
72950;BME280;64868;45.710;9.590;2023-05-23T02:38:32;98650.63;;;17.34;69.31
72950;BME280;64868;45.710;9.590;2023-05-23T02:41:04;98658.22;;;17.32;69.12
72950;BME280;64868;45.710;9.590;2023-05-23T02:43:37;98655.94;;;17.27;70.15
72950;BME280;64868;45.710;9.590;2023-05-23T02:46:09;98668.16;;;17.25;69.26
72950;BME280;64868;45.710;9.590;2023-05-23T02:48:42;98660.38;;;17.20;70.49
72950;BME280;64868;45.710;9.590;2023-05-23T02:51:12;98671.72;;;17.17;69.99
72950;BME280;64868;45.710;9.590;2023-05-23T02:53:45;98661.09;;;17.31;69.18
72950;BME280;64868;45.710;9.590;2023-05-23T02:56:15;98660.69;;;17.17;69.57
72950;BME280;64868;45.710;9.590;2023-05-23T02:58:45;98669.81;;;17.18;70.15
72950;BME280;64868;45.710;9.590;2023-05-23T03:01:17;98668.78;;;17.19;70.02
72950;BME280;64868;45.710;9.590;2023-05-23T03:03:48;98680.31;;;17.14;70.87
72950;BME280;64868;45.710;9.590;2023-05-23T03:06:20;98664.13;;;17.19;69.53
72950;BME280;64868;45.710;9.590;2023-05-23T03:08:53;98674.25;;;17.11;70.88
72950;BME280;64868;45.710;9.590;2023-05-23T03:11:26;98676.72;;;17.22;70.08
72950;BME280;64868;45.710;9.590;2023-05-23T03:13:58;98661.88;;;17.15;69.76
72950;BME280;64868;45.710;9.590;2023-05-23T03:16:31;98668.06;;;17.09;69.73
72950;BME280;64868;45.710;9.590;2023-05-23T03:19:01;98663.09;;;17.12;70.00
72950;BME280;64868;45.710;9.590;2023-05-23T03:21:31;98663.28;;;17.19;69.76
72950;BME280;64868;45.710;9.590;2023-05-23T03:24:04;98665.34;;;17.17;69.31
72950;BME280;64868;45.710;9.590;2023-05-23T03:26:36;98675.97;;;17.12;69.04
72950;BME280;64868;45.710;9.590;2023-05-23T03:29:09;98667.78;;;17.20;69.06
72950;BME280;64868;45.710;9.590;2023-05-23T03:31:41;98665.41;;;17.25;69.41
72950;BME280;64868;45.710;9.590;2023-05-23T03:34:14;98672.91;;;17.15;69.06
72950;BME280;64868;45.710;9.590;2023-05-23T03:36:46;98673.56;;;17.09;68.84
72950;BME280;64868;45.710;9.590;2023-05-23T03:39:19;98662.19;;;17.12;68.98
72950;BME280;64868;45.710;9.590;2023-05-23T03:41:49;98678.03;;;17.10;69.19
72950;BME280;64868;45.710;9.590;2023-05-23T03:44:22;98673.75;;;17.15;69.04
72950;BME280;64868;45.710;9.590;2023-05-23T03:46:55;98669.00;;;17.25;68.50
72950;BME280;64868;45.710;9.590;2023-05-23T03:49:24;98667.44;;;17.23;68.32
72950;BME280;64868;45.710;9.590;2023-05-23T03:51:57;98666.34;;;17.16;69.11
72950;BME280;64868;45.710;9.590;2023-05-23T03:54:30;98668.47;;;17.22;69.02
72950;BME280;64868;45.710;9.590;2023-05-23T03:56:58;98672.47;;;17.27;68.70
72950;BME280;64868;45.710;9.590;2023-05-23T03:59:30;98679.44;;;17.14;69.50
72950;BME280;64868;45.710;9.590;2023-05-23T04:02:03;98690.19;;;17.25;69.12
72950;BME280;64868;45.710;9.590;2023-05-23T04:04:33;98664.22;;;17.27;68.54
72950;BME280;64868;45.710;9.590;2023-05-23T04:07:05;98672.66;;;17.34;69.02
72950;BME280;64868;45.710;9.590;2023-05-23T04:09:38;98665.94;;;17.29;68.61
72950;BME280;64868;45.710;9.590;2023-05-23T04:12:11;98671.88;;;17.50;67.58
72950;BME280;64868;45.710;9.590;2023-05-23T04:14:44;98668.47;;;17.56;67.79
72950;BME280;64868;45.710;9.590;2023-05-23T04:17:16;98664.94;;;17.72;66.73
72950;BME280;64868;45.710;9.590;2023-05-23T04:19:44;98668.41;;;17.74;66.99
72950;BME280;64868;45.710;9.590;2023-05-23T04:22:14;98670.78;;;17.69;66.74
72950;BME280;64868;45.710;9.590;2023-05-23T04:24:44;98659.56;;;17.62;66.89
72950;BME280;64868;45.710;9.590;2023-05-23T04:27:14;98674.16;;;17.81;66.26
72950;BME280;64868;45.710;9.590;2023-05-23T04:29:47;98681.22;;;17.83;66.37
72950;BME280;64868;45.710;9.590;2023-05-23T04:32:19;98678.78;;;17.80;66.40
72950;BME280;64868;45.710;9.590;2023-05-23T04:34:51;98686.09;;;17.97;65.97
72950;BME280;64868;45.710;9.590;2023-05-23T04:37:24;98687.84;;;18.07;64.87
72950;BME280;64868;45.710;9.590;2023-05-23T04:39:57;98688.47;;;18.67;63.46
72950;BME280;64868;45.710;9.590;2023-05-23T04:42:29;98686.41;;;20.99;56.11
72950;BME280;64868;45.710;9.590;2023-05-23T04:44:59;98689.78;;;22.06;52.70
72950;BME280;64868;45.710;9.590;2023-05-23T04:47:32;98701.13;;;22.98;49.62
72950;BME280;64868;45.710;9.590;2023-05-23T04:50:05;98702.59;;;22.07;51.01
72950;BME280;64868;45.710;9.590;2023-05-23T04:52:37;98702.06;;;20.37;56.00
72950;BME280;64868;45.710;9.590;2023-05-23T04:55:08;98688.75;;;19.46;59.65
72950;BME280;64868;45.710;9.590;2023-05-23T04:57:38;98688.97;;;19.20;60.69
72950;BME280;64868;45.710;9.590;2023-05-23T05:00:09;98693.47;;;19.13;60.76
72950;BME280;64868;45.710;9.590;2023-05-23T05:02:42;98699.53;;;19.25;60.67
72950;BME280;64868;45.710;9.590;2023-05-23T05:05:12;98690.69;;;19.37;60.50
72950;BME280;64868;45.710;9.590;2023-05-23T05:07:42;98696.00;;;19.47;60.15
72950;BME280;64868;45.710;9.590;2023-05-23T05:10:15;98677.66;;;19.54;59.48
72950;BME280;64868;45.710;9.590;2023-05-23T05:12:45;98695.97;;;19.72;59.20
72950;BME280;64868;45.710;9.590;2023-05-23T05:15:18;98685.03;;;19.86;58.80
72950;BME280;64868;45.710;9.590;2023-05-23T05:17:51;98686.09;;;19.85;58.61
72950;BME280;64868;45.710;9.590;2023-05-23T05:20:21;98683.47;;;19.84;58.53
72950;BME280;64868;45.710;9.590;2023-05-23T05:22:48;98690.38;;;19.88;58.14
72950;BME280;64868;45.710;9.590;2023-05-23T05:25:25;98685.84;;;19.95;57.80
72950;BME280;64868;45.710;9.590;2023-05-23T05:27:58;98690.31;;;20.04;58.22
72950;BME280;64868;45.710;9.590;2023-05-23T05:30:28;98687.59;;;20.27;57.03
72950;BME280;64868;45.710;9.590;2023-05-23T05:33:01;98686.34;;;20.30;57.10
72950;BME280;64868;45.710;9.590;2023-05-23T05:35:34;98687.31;;;20.53;56.28
72950;BME280;64868;45.710;9.590;2023-05-23T05:38:07;98688.72;;;20.72;55.45
72950;BME280;64868;45.710;9.590;2023-05-23T05:40:39;98692.09;;;20.82;55.65
72950;BME280;64868;45.710;9.590;2023-05-23T05:43:07;98694.97;;;20.89;55.41
72950;BME280;64868;45.710;9.590;2023-05-23T05:45:40;98695.84;;;20.89;55.00
72950;BME280;64868;45.710;9.590;2023-05-23T05:48:10;98686.47;;;20.90;54.62
72950;BME280;64868;45.710;9.590;2023-05-23T05:50:42;98682.38;;;21.01;55.44
72950;BME280;64868;45.710;9.590;2023-05-23T05:53:16;98694.94;;;21.35;54.37
72950;BME280;64868;45.710;9.590;2023-05-23T05:55:46;98693.75;;;21.29;53.51
72950;BME280;64868;45.710;9.590;2023-05-23T05:58:18;98694.19;;;22.51;51.36
72950;BME280;64868;45.710;9.590;2023-05-23T06:00:47;98695.00;;;25.83;42.52
72950;BME280;64868;45.710;9.590;2023-05-23T06:03:19;98704.31;;;28.97;35.51
72950;BME280;64868;45.710;9.590;2023-05-23T06:05:50;98708.59;;;30.59;31.91
72950;BME280;64868;45.710;9.590;2023-05-23T06:08:22;98713.56;;;31.54;31.38
72950;BME280;64868;45.710;9.590;2023-05-23T06:10:53;98715.88;;;32.68;28.96
72950;BME280;64868;45.710;9.590;2023-05-23T06:13:25;98711.19;;;33.50;27.51
72950;BME280;64868;45.710;9.590;2023-05-23T06:15:55;98709.19;;;34.20;26.38
72950;BME280;64868;45.710;9.590;2023-05-23T06:18:28;98706.59;;;34.56;25.58
72950;BME280;64868;45.710;9.590;2023-05-23T06:21:00;98720.56;;;34.78;25.51
72950;BME280;64868;45.710;9.590;2023-05-23T06:23:31;98723.28;;;35.41;24.04
72950;BME280;64868;45.710;9.590;2023-05-23T06:26:03;98716.25;;;35.89;23.52
72950;BME280;64868;45.710;9.590;2023-05-23T06:28:37;98703.19;;;37.04;22.51
72950;BME280;64868;45.710;9.590;2023-05-23T06:31:09;98707.94;;;36.44;23.09
72950;BME280;64868;45.710;9.590;2023-05-23T06:33:40;98714.03;;;36.92;22.20
72950;BME280;64868;45.710;9.590;2023-05-23T06:36:12;98734.41;;;37.14;21.88
72950;BME280;64868;45.710;9.590;2023-05-23T06:38:43;98721.53;;;36.67;22.47
72950;BME280;64868;45.710;9.590;2023-05-23T06:41:13;98721.78;;;38.09;20.85
72950;BME280;64868;45.710;9.590;2023-05-23T06:43:46;98717.34;;;38.27;20.77
72950;BME280;64868;45.710;9.590;2023-05-23T06:46:18;98697.88;;;39.06;20.19
72950;BME280;64868;45.710;9.590;2023-05-23T06:48:51;98696.44;;;39.28;19.87
72950;BME280;64868;45.710;9.590;2023-05-23T06:51:23;98696.47;;;38.85;19.85
72950;BME280;64868;45.710;9.590;2023-05-23T06:53:54;98689.25;;;36.17;23.10
72950;BME280;64868;45.710;9.590;2023-05-23T06:56:29;98695.25;;;38.14;20.67
72950;BME280;64868;45.710;9.590;2023-05-23T06:59:02;98700.06;;;39.33;19.66
72950;BME280;64868;45.710;9.590;2023-05-23T07:01:32;98699.50;;;40.34;18.38
72950;BME280;64868;45.710;9.590;2023-05-23T07:04:05;98701.44;;;41.58;17.14
72950;BME280;64868;45.710;9.590;2023-05-23T07:06:35;98697.72;;;40.94;17.50
72950;BME280;64868;45.710;9.590;2023-05-23T07:09:08;98705.75;;;40.36;18.04
72950;BME280;64868;45.710;9.590;2023-05-23T07:11:40;98701.09;;;40.41;18.06
72950;BME280;64868;45.710;9.590;2023-05-23T07:14:11;98705.88;;;40.87;17.77
72950;BME280;64868;45.710;9.590;2023-05-23T07:16:43;98719.28;;;42.00;16.64
72950;BME280;64868;45.710;9.590;2023-05-23T07:19:13;98711.69;;;41.95;16.27
72950;BME280;64868;45.710;9.590;2023-05-23T07:21:43;98719.38;;;43.11;15.78
72950;BME280;64868;45.710;9.590;2023-05-23T07:24:13;98713.44;;;43.07;15.60
72950;BME280;64868;45.710;9.590;2023-05-23T07:26:46;98706.13;;;43.58;15.35
72950;BME280;64868;45.710;9.590;2023-05-23T07:29:18;98710.34;;;44.98;13.54
72950;BME280;64868;45.710;9.590;2023-05-23T07:31:46;98716.78;;;46.29;13.34
72950;BME280;64868;45.710;9.590;2023-05-23T07:34:19;98718.44;;;46.64;12.07
72950;BME280;64868;45.710;9.590;2023-05-23T07:36:51;98714.97;;;46.25;12.40
72950;BME280;64868;45.710;9.590;2023-05-23T07:39:24;98713.34;;;45.61;13.16
72950;BME280;64868;45.710;9.590;2023-05-23T07:41:57;98709.81;;;45.97;12.73
72950;BME280;64868;45.710;9.590;2023-05-23T07:44:29;98713.75;;;45.72;13.36
72950;BME280;64868;45.710;9.590;2023-05-23T07:47:02;98702.03;;;46.10;12.98
72950;BME280;64868;45.710;9.590;2023-05-23T07:49:34;98712.91;;;46.58;12.36
72950;BME280;64868;45.710;9.590;2023-05-23T07:52:07;98724.38;;;47.04;11.98
72950;BME280;64868;45.710;9.590;2023-05-23T07:54:40;98717.63;;;47.49;11.73
72950;BME280;64868;45.710;9.590;2023-05-23T07:57:12;98709.81;;;48.62;11.25
72950;BME280;64868;45.710;9.590;2023-05-23T07:59:45;98712.91;;;49.36;10.62
72950;BME280;64868;45.710;9.590;2023-05-23T08:02:13;98699.47;;;48.33;10.94
72950;BME280;64868;45.710;9.590;2023-05-23T08:04:45;98698.44;;;47.97;11.53
72950;BME280;64868;45.710;9.590;2023-05-23T08:07:16;98701.94;;;47.50;11.67
72950;BME280;64868;45.710;9.590;2023-05-23T08:09:48;98695.06;;;47.95;11.15
72950;BME280;64868;45.710;9.590;2023-05-23T08:12:19;98702.72;;;47.35;11.63
72950;BME280;64868;45.710;9.590;2023-05-23T08:14:51;98694.13;;;48.79;10.65
72950;BME280;64868;45.710;9.590;2023-05-23T08:17:24;98687.66;;;49.01;10.69
72950;BME280;64868;45.710;9.590;2023-05-23T08:19:57;98691.47;;;46.14;12.46
72950;BME280;64868;45.710;9.590;2023-05-23T08:22:29;98692.94;;;46.08;12.71
72950;BME280;64868;45.710;9.590;2023-05-23T08:24:59;98683.22;;;44.31;14.08
72950;BME280;64868;45.710;9.590;2023-05-23T08:27:30;98689.84;;;38.65;20.07
72950;BME280;64868;45.710;9.590;2023-05-23T08:30:00;98664.56;;;34.43;25.30
72950;BME280;64868;45.710;9.590;2023-05-23T08:32:33;98665.81;;;32.59;28.30
72950;BME280;64868;45.710;9.590;2023-05-23T08:35:06;98662.00;;;31.87;29.43
72950;BME280;64868;45.710;9.590;2023-05-23T08:37:39;98655.66;;;31.80;30.35
72950;BME280;64868;45.710;9.590;2023-05-23T08:40:14;98662.28;;;31.07;31.33
72950;BME280;64868;45.710;9.590;2023-05-23T08:42:48;98659.38;;;30.73;31.79
72950;BME280;64868;45.710;9.590;2023-05-23T08:45:21;98662.38;;;30.54;32.27
72950;BME280;64868;45.710;9.590;2023-05-23T08:47:53;98658.16;;;30.97;31.17
72950;BME280;64868;45.710;9.590;2023-05-23T08:50:28;98663.41;;;31.22;30.83
72950;BME280;64868;45.710;9.590;2023-05-23T08:52:58;98654.56;;;31.64;31.41
72950;BME280;64868;45.710;9.590;2023-05-23T08:55:27;98658.16;;;30.69;31.90
72950;BME280;64868;45.710;9.590;2023-05-23T08:58:01;98667.25;;;29.95;34.32
72950;BME280;64868;45.710;9.590;2023-05-23T09:00:33;98667.72;;;29.45;33.75
72950;BME280;64868;45.710;9.590;2023-05-23T09:03:03;98671.06;;;29.89;35.23
72950;BME280;64868;45.710;9.590;2023-05-23T09:05:33;98668.88;;;30.72;33.04
72950;BME280;64868;45.710;9.590;2023-05-23T09:08:06;98662.22;;;30.61;32.35
72950;BME280;64868;45.710;9.590;2023-05-23T09:10:36;98669.31;;;30.23;32.50
72950;BME280;64868;45.710;9.590;2023-05-23T09:13:06;98660.50;;;29.96;33.36
72950;BME280;64868;45.710;9.590;2023-05-23T09:15:36;98664.53;;;29.53;33.25
72950;BME280;64868;45.710;9.590;2023-05-23T09:18:09;98668.38;;;29.71;33.52
72950;BME280;64868;45.710;9.590;2023-05-23T09:20:42;98663.22;;;29.79;34.42
72950;BME280;64868;45.710;9.590;2023-05-23T09:23:15;98670.31;;;29.82;34.62
72950;BME280;64868;45.710;9.590;2023-05-23T09:25:50;98663.22;;;29.68;33.26
72950;BME280;64868;45.710;9.590;2023-05-23T09:28:23;98665.06;;;30.49;32.36
72950;BME280;64868;45.710;9.590;2023-05-23T09:31:04;98659.50;;;30.26;33.16
72950;BME280;64868;45.710;9.590;2023-05-23T09:33:41;98658.94;;;29.89;32.85
72950;BME280;64868;45.710;9.590;2023-05-23T09:36:12;98650.47;;;29.53;33.58
72950;BME280;64868;45.710;9.590;2023-05-23T09:38:45;98657.38;;;30.45;32.13
72950;BME280;64868;45.710;9.590;2023-05-23T09:41:15;98664.56;;;30.52;32.07
72950;BME280;64868;45.710;9.590;2023-05-23T09:43:54;98657.34;;;30.16;32.45
72950;BME280;64868;45.710;9.590;2023-05-23T09:46:21;98654.69;;;30.50;31.47
72950;BME280;64868;45.710;9.590;2023-05-23T09:48:52;98649.41;;;30.01;33.33
72950;BME280;64868;45.710;9.590;2023-05-23T09:51:25;98648.72;;;30.75;32.11
72950;BME280;64868;45.710;9.590;2023-05-23T09:53:57;98648.59;;;30.98;32.75
72950;BME280;64868;45.710;9.590;2023-05-23T09:56:28;98645.97;;;30.92;31.19
72950;BME280;64868;45.710;9.590;2023-05-23T09:58:59;98650.78;;;30.80;31.66
72950;BME280;64868;45.710;9.590;2023-05-23T10:01:32;98641.81;;;31.28;30.79
72950;BME280;64868;45.710;9.590;2023-05-23T10:04:04;98641.75;;;31.57;30.46
72950;BME280;64868;45.710;9.590;2023-05-23T10:06:50;98639.38;;;31.48;30.13
72950;BME280;64868;45.710;9.590;2023-05-23T10:09:26;98629.78;;;31.33;30.29
72950;BME280;64868;45.710;9.590;2023-05-23T10:14:52;98637.06;;;30.83;32.19
72950;BME280;64868;45.710;9.590;2023-05-23T10:17:32;98634.41;;;30.65;31.49
72950;BME280;64868;45.710;9.590;2023-05-23T10:20:10;98629.38;;;29.86;30.49
72950;BME280;64868;45.710;9.590;2023-05-23T10:22:41;98623.59;;;30.85;30.88
72950;BME280;64868;45.710;9.590;2023-05-23T10:25:11;98623.13;;;30.48;30.49
72950;BME280;64868;45.710;9.590;2023-05-23T10:27:44;98625.94;;;30.19;31.95
72950;BME280;64868;45.710;9.590;2023-05-23T10:30:18;98629.06;;;30.23;32.48
72950;BME280;64868;45.710;9.590;2023-05-23T10:32:52;98622.75;;;30.44;32.52
72950;BME280;64868;45.710;9.590;2023-05-23T10:38:09;98624.50;;;30.34;29.70
72950;BME280;64868;45.710;9.590;2023-05-23T10:41:08;98616.19;;;30.39;30.10
72950;BME280;64868;45.710;9.590;2023-05-23T10:43:55;98623.72;;;29.51;31.21
72950;BME280;64868;45.710;9.590;2023-05-23T10:46:52;98614.81;;;30.01;30.92
72950;BME280;64868;45.710;9.590;2023-05-23T10:49:47;98606.69;;;30.28;30.18
72950;BME280;64868;45.710;9.590;2023-05-23T10:52:22;98609.84;;;30.32;31.02
72950;BME280;64868;45.710;9.590;2023-05-23T10:54:53;98609.56;;;30.73;29.21
72950;BME280;64868;45.710;9.590;2023-05-23T10:57:25;98601.31;;;30.55;29.52
72950;BME280;64868;45.710;9.590;2023-05-23T10:59:56;98608.09;;;30.99;29.40
72950;BME280;64868;45.710;9.590;2023-05-23T11:02:30;98604.81;;;30.91;27.26
72950;BME280;64868;45.710;9.590;2023-05-23T11:05:18;98602.41;;;30.83;27.06
72950;BME280;64868;45.710;9.590;2023-05-23T11:08:09;98597.44;;;31.18;28.51
72950;BME280;64868;45.710;9.590;2023-05-23T11:11:15;98602.63;;;30.93;28.22
72950;BME280;64868;45.710;9.590;2023-05-23T11:13:57;98586.34;;;30.66;29.12
72950;BME280;64868;45.710;9.590;2023-05-23T11:16:41;98583.50;;;30.95;29.42
72950;BME280;64868;45.710;9.590;2023-05-23T11:19:22;98598.25;;;30.85;28.92
72950;BME280;64868;45.710;9.590;2023-05-23T11:22:01;98596.16;;;30.35;27.63
72950;BME280;64868;45.710;9.590;2023-05-23T11:24:54;98585.63;;;30.59;26.68
72950;BME280;64868;45.710;9.590;2023-05-23T11:27:34;98590.22;;;30.77;25.88
72950;BME280;64868;45.710;9.590;2023-05-23T11:30:09;98605.34;;;31.05;25.69
72950;BME280;64868;45.710;9.590;2023-05-23T11:32:46;98606.19;;;31.56;26.83
72950;BME280;64868;45.710;9.590;2023-05-23T11:35:18;98594.53;;;32.03;26.86
72950;BME280;64868;45.710;9.590;2023-05-23T11:37:51;98598.66;;;32.17;26.18
72950;BME280;64868;45.710;9.590;2023-05-23T11:40:32;98597.75;;;32.55;25.74
72950;BME280;64868;45.710;9.590;2023-05-23T11:43:04;98583.75;;;30.93;28.12
72950;BME280;64868;45.710;9.590;2023-05-23T11:45:35;98592.91;;;31.00;28.53
72950;BME280;64868;45.710;9.590;2023-05-23T11:48:11;98586.69;;;30.70;27.04
72950;BME280;64868;45.710;9.590;2023-05-23T11:50:49;98578.72;;;30.50;27.72
72950;BME280;64868;45.710;9.590;2023-05-23T11:53:21;98571.13;;;31.13;28.71
72950;BME280;64868;45.710;9.590;2023-05-23T11:56:00;98572.69;;;31.37;27.75
72950;BME280;64868;45.710;9.590;2023-05-23T11:58:30;98567.31;;;31.74;26.81
72950;BME280;64868;45.710;9.590;2023-05-23T12:01:02;98585.91;;;31.54;27.57
72950;BME280;64868;45.710;9.590;2023-05-23T12:03:33;98575.13;;;31.50;28.24
72950;BME280;64868;45.710;9.590;2023-05-23T12:06:04;98567.28;;;31.53;28.85
72950;BME280;64868;45.710;9.590;2023-05-23T12:08:35;98573.81;;;31.75;28.51
72950;BME280;64868;45.710;9.590;2023-05-23T12:11:05;98578.41;;;31.42;26.71
72950;BME280;64868;45.710;9.590;2023-05-23T12:13:36;98576.53;;;32.31;27.87
72950;BME280;64868;45.710;9.590;2023-05-23T12:16:11;98572.66;;;32.37;27.93
72950;BME280;64868;45.710;9.590;2023-05-23T12:18:44;98561.03;;;32.82;27.56
72950;BME280;64868;45.710;9.590;2023-05-23T12:21:16;98567.16;;;32.47;27.12
72950;BME280;64868;45.710;9.590;2023-05-23T12:23:47;98558.00;;;32.62;27.49
72950;BME280;64868;45.710;9.590;2023-05-23T12:26:19;98555.06;;;33.11;27.07
72950;BME280;64868;45.710;9.590;2023-05-23T12:28:52;98552.66;;;33.25;27.10
72950;BME280;64868;45.710;9.590;2023-05-23T12:31:23;98548.66;;;32.12;28.51
72950;BME280;64868;45.710;9.590;2023-05-23T12:33:56;98541.16;;;32.23;27.84
72950;BME280;64868;45.710;9.590;2023-05-23T12:36:28;98546.25;;;31.99;28.57
72950;BME280;64868;45.710;9.590;2023-05-23T12:39:03;98528.53;;;31.43;29.12
72950;BME280;64868;45.710;9.590;2023-05-23T12:41:34;98538.91;;;31.59;29.04
72950;BME280;64868;45.710;9.590;2023-05-23T12:44:07;98549.66;;;31.07;29.56
72950;BME280;64868;45.710;9.590;2023-05-23T12:46:40;98536.44;;;31.29;29.54
72950;BME280;64868;45.710;9.590;2023-05-23T12:49:12;98552.03;;;32.09;29.39
72950;BME280;64868;45.710;9.590;2023-05-23T12:51:42;98545.28;;;32.37;27.87
72950;BME280;64868;45.710;9.590;2023-05-23T12:54:13;98549.75;;;33.14;27.96
72950;BME280;64868;45.710;9.590;2023-05-23T12:56:41;98543.75;;;33.43;27.23
72950;BME280;64868;45.710;9.590;2023-05-23T12:59:11;98549.09;;;32.26;27.91
72950;BME280;64868;45.710;9.590;2023-05-23T13:01:43;98543.09;;;32.17;28.13
72950;BME280;64868;45.710;9.590;2023-05-23T13:04:16;98551.16;;;32.58;27.19
72950;BME280;64868;45.710;9.590;2023-05-23T13:06:43;98534.44;;;32.02;28.73
72950;BME280;64868;45.710;9.590;2023-05-23T13:09:17;98543.78;;;33.11;27.98
72950;BME280;64868;45.710;9.590;2023-05-23T13:11:50;98537.16;;;33.32;27.24
72950;BME280;64868;45.710;9.590;2023-05-23T13:14:22;98530.66;;;33.69;26.21
72950;BME280;64868;45.710;9.590;2023-05-23T13:16:55;98525.97;;;33.95;25.94
72950;BME280;64868;45.710;9.590;2023-05-23T13:19:27;98532.72;;;33.04;26.53
72950;BME280;64868;45.710;9.590;2023-05-23T13:22:00;98521.78;;;33.50;26.82
72950;BME280;64868;45.710;9.590;2023-05-23T13:24:30;98530.50;;;32.79;26.78
72950;BME280;64868;45.710;9.590;2023-05-23T13:27:03;98524.66;;;32.10;28.28
72950;BME280;64868;45.710;9.590;2023-05-23T13:29:36;98515.41;;;31.32;29.67
72950;BME280;64868;45.710;9.590;2023-05-23T13:32:08;98527.44;;;31.66;29.68
72950;BME280;64868;45.710;9.590;2023-05-23T13:34:41;98518.75;;;32.11;28.13
72950;BME280;64868;45.710;9.590;2023-05-23T13:37:11;98526.50;;;32.21;28.67